sensor_id;sensor_type;location;lat;lon;timestamp;pressure;altitude;pressure_sealevel;temperature;humidity
40171;BME280;37650;52.790;18.268;2023-03-25T00:02:08;99325.20;;;7.56;100.00
40171;BME280;37650;52.790;18.268;2023-03-25T00:05:29;99319.87;;;7.54;100.00
40171;BME280;37650;52.790;18.268;2023-03-25T00:08:51;99323.05;;;7.53;100.00
40171;BME280;37650;52.790;18.268;2023-03-25T00:12:14;99318.98;;;7.50;100.00
40171;BME280;37650;52.790;18.268;2023-03-25T00:15:36;99309.52;;;7.47;100.00
40171;BME280;37650;52.790;18.268;2023-03-25T00:18:58;99319.99;;;7.47;100.00
40171;BME280;37650;52.790;18.268;2023-03-25T00:22:21;99328.48;;;7.44;100.00
40171;BME280;37650;52.790;18.268;2023-03-25T00:25:43;99323.98;;;7.39;100.00
40171;BME280;37650;52.790;18.268;2023-03-25T00:29:05;99312.99;;;7.30;100.00
40171;BME280;37650;52.790;18.268;2023-03-25T00:32:26;99325.20;;;7.22;100.00
40171;BME280;37650;52.790;18.268;2023-03-25T00:35:51;99333.02;;;7.09;100.00
40171;BME280;37650;52.790;18.268;2023-03-25T00:39:14;99337.36;;;7.01;100.00
40171;BME280;37650;52.790;18.268;2023-03-25T00:42:36;99328.73;;;6.99;100.00
40171;BME280;37650;52.790;18.268;2023-03-25T00:45:57;99326.27;;;7.04;100.00
40171;BME280;37650;52.790;18.268;2023-03-25T00:49:19;99316.17;;;7.08;100.00
40171;BME280;37650;52.790;18.268;2023-03-25T00:52:44;99307.77;;;7.09;100.00
40171;BME280;37650;52.790;18.268;2023-03-25T00:56:06;99305.98;;;7.10;100.00
40171;BME280;37650;52.790;18.268;2023-03-25T00:59:28;99298.84;;;7.09;100.00
40171;BME280;37650;52.790;18.268;2023-03-25T01:02:49;99297.28;;;7.09;100.00
40171;BME280;37650;52.790;18.268;2023-03-25T01:06:15;99290.01;;;7.08;100.00
40171;BME280;37650;52.790;18.268;2023-03-25T01:09:38;99288.48;;;7.07;100.00
40171;BME280;37650;52.790;18.268;2023-03-25T01:13:01;99294.06;;;7.03;100.00
40171;BME280;37650;52.790;18.268;2023-03-25T01:16:23;99296.64;;;6.99;100.00
40171;BME280;37650;52.790;18.268;2023-03-25T01:19:44;99297.13;;;6.96;100.00
40171;BME280;37650;52.790;18.268;2023-03-25T01:23:07;99295.85;;;6.93;100.00
40171;BME280;37650;52.790;18.268;2023-03-25T01:26:29;99299.81;;;6.90;100.00
40171;BME280;37650;52.790;18.268;2023-03-25T01:29:51;99296.69;;;6.89;100.00
40171;BME280;37650;52.790;18.268;2023-03-25T01:33:14;99290.98;;;6.88;100.00
40171;BME280;37650;52.790;18.268;2023-03-25T01:36:36;99284.88;;;6.84;100.00
40171;BME280;37650;52.790;18.268;2023-03-25T01:40:00;99275.71;;;6.77;100.00
40171;BME280;37650;52.790;18.268;2023-03-25T01:43:22;99284.58;;;6.74;100.00
40171;BME280;37650;52.790;18.268;2023-03-25T01:46:43;99286.11;;;6.70;100.00
40171;BME280;37650;52.790;18.268;2023-03-25T01:50:07;99282.06;;;6.67;100.00
40171;BME280;37650;52.790;18.268;2023-03-25T01:53:31;99284.43;;;6.64;100.00
40171;BME280;37650;52.790;18.268;2023-03-25T01:56:52;99282.09;;;6.61;100.00
40171;BME280;37650;52.790;18.268;2023-03-25T02:00:14;99286.53;;;6.59;100.00
40171;BME280;37650;52.790;18.268;2023-03-25T02:03:36;99287.39;;;6.59;100.00
40171;BME280;37650;52.790;18.268;2023-03-25T02:06:57;99290.27;;;6.57;100.00
40171;BME280;37650;52.790;18.268;2023-03-25T02:10:19;99287.25;;;6.54;100.00
40171;BME280;37650;52.790;18.268;2023-03-25T02:13:41;99287.19;;;6.51;100.00
40171;BME280;37650;52.790;18.268;2023-03-25T02:21:35;99277.59;;;6.52;100.00
40171;BME280;37650;52.790;18.268;2023-03-25T02:28:46;99264.66;;;6.48;100.00
40171;BME280;37650;52.790;18.268;2023-03-25T02:40:08;99262.58;;;6.43;100.00
40171;BME280;37650;52.790;18.268;2023-03-25T02:43:43;99260.98;;;6.44;100.00
40171;BME280;37650;52.790;18.268;2023-03-25T02:47:14;99254.06;;;6.43;100.00
40171;BME280;37650;52.790;18.268;2023-03-25T02:50:41;99249.80;;;6.41;100.00
40171;BME280;37650;52.790;18.268;2023-03-25T02:54:08;99244.64;;;6.39;100.00
40171;BME280;37650;52.790;18.268;2023-03-25T02:57:33;99244.30;;;6.39;100.00
40171;BME280;37650;52.790;18.268;2023-03-25T03:00:56;99245.35;;;6.33;100.00
40171;BME280;37650;52.790;18.268;2023-03-25T03:04:18;99251.33;;;6.31;100.00
40171;BME280;37650;52.790;18.268;2023-03-25T03:07:43;99256.27;;;6.30;100.00
40171;BME280;37650;52.790;18.268;2023-03-25T03:14:55;99255.77;;;6.25;100.00
40171;BME280;37650;52.790;18.268;2023-03-25T03:25:54;99245.59;;;6.13;100.00
40171;BME280;37650;52.790;18.268;2023-03-25T03:29:26;99239.84;;;6.08;100.00
40171;BME280;37650;52.790;18.268;2023-03-25T03:36:24;99249.64;;;6.03;100.00
40171;BME280;37650;52.790;18.268;2023-03-25T03:39:47;99244.15;;;6.00;100.00
40171;BME280;37650;52.790;18.268;2023-03-25T03:43:16;99244.46;;;5.97;100.00
40171;BME280;37650;52.790;18.268;2023-03-25T03:46:50;99245.95;;;5.94;100.00
40171;BME280;37650;52.790;18.268;2023-03-25T03:50:18;99246.91;;;5.92;100.00
40171;BME280;37650;52.790;18.268;2023-03-25T03:54:25;99259.26;;;5.92;100.00
40171;BME280;37650;52.790;18.268;2023-03-25T03:57:49;99262.10;;;5.95;100.00
40171;BME280;37650;52.790;18.268;2023-03-25T04:01:25;99278.25;;;5.96;100.00
40171;BME280;37650;52.790;18.268;2023-03-25T04:04:50;99281.89;;;5.97;100.00
40171;BME280;37650;52.790;18.268;2023-03-25T04:08:31;99288.05;;;5.94;100.00
40171;BME280;37650;52.790;18.268;2023-03-25T04:12:25;99294.07;;;5.92;100.00
40171;BME280;37650;52.790;18.268;2023-03-25T04:15:47;99295.52;;;5.90;100.00
40171;BME280;37650;52.790;18.268;2023-03-25T04:19:08;99293.16;;;5.88;100.00
40171;BME280;37650;52.790;18.268;2023-03-25T04:22:29;99297.38;;;5.86;100.00
40171;BME280;37650;52.790;18.268;2023-03-25T04:25:51;99297.55;;;5.86;100.00
40171;BME280;37650;52.790;18.268;2023-03-25T04:29:15;99292.88;;;5.85;100.00
40171;BME280;37650;52.790;18.268;2023-03-25T04:32:37;99289.10;;;5.83;100.00
40171;BME280;37650;52.790;18.268;2023-03-25T04:35:58;99290.65;;;5.84;100.00
40171;BME280;37650;52.790;18.268;2023-03-25T04:39:21;99293.81;;;5.83;100.00
40171;BME280;37650;52.790;18.268;2023-03-25T04:42:46;99300.41;;;5.83;100.00
40171;BME280;37650;52.790;18.268;2023-03-25T04:46:11;99297.43;;;5.84;100.00
40171;BME280;37650;52.790;18.268;2023-03-25T04:49:33;99304.69;;;5.86;100.00
40171;BME280;37650;52.790;18.268;2023-03-25T04:52:55;99308.10;;;5.88;100.00
40171;BME280;37650;52.790;18.268;2023-03-25T04:56:22;99307.55;;;5.89;100.00
40171;BME280;37650;52.790;18.268;2023-03-25T04:59:44;99308.02;;;5.91;100.00
40171;BME280;37650;52.790;18.268;2023-03-25T05:03:05;99305.30;;;5.94;100.00
40171;BME280;37650;52.790;18.268;2023-03-25T05:06:26;99295.78;;;5.98;100.00
40171;BME280;37650;52.790;18.268;2023-03-25T05:09:49;99292.25;;;5.99;100.00
40171;BME280;37650;52.790;18.268;2023-03-25T05:13:10;99291.91;;;5.99;100.00
40171;BME280;37650;52.790;18.268;2023-03-25T05:16:32;99296.55;;;6.00;100.00
40171;BME280;37650;52.790;18.268;2023-03-25T05:19:53;99309.25;;;6.00;100.00
40171;BME280;37650;52.790;18.268;2023-03-25T05:23:16;99307.90;;;5.99;100.00
40171;BME280;37650;52.790;18.268;2023-03-25T05:26:39;99297.66;;;5.99;100.00
40171;BME280;37650;52.790;18.268;2023-03-25T05:30:02;99294.40;;;5.97;100.00
40171;BME280;37650;52.790;18.268;2023-03-25T05:33:23;99294.56;;;6.02;100.00
40171;BME280;37650;52.790;18.268;2023-03-25T05:36:44;99295.94;;;6.45;100.00
40171;BME280;37650;52.790;18.268;2023-03-25T05:40:06;99294.45;;;7.36;100.00
40171;BME280;37650;52.790;18.268;2023-03-25T05:43:28;99298.20;;;8.19;100.00
40171;BME280;37650;52.790;18.268;2023-03-25T05:46:55;99301.27;;;8.71;100.00
40171;BME280;37650;52.790;18.268;2023-03-25T05:50:21;99299.82;;;9.13;100.00
40171;BME280;37650;52.790;18.268;2023-03-25T05:53:45;99293.98;;;9.25;100.00
40171;BME280;37650;52.790;18.268;2023-03-25T05:57:11;99296.98;;;9.84;100.00
40171;BME280;37650;52.790;18.268;2023-03-25T06:00:32;99300.90;;;10.37;100.00
40171;BME280;37650;52.790;18.268;2023-03-25T06:03:54;99298.73;;;10.80;100.00
40171;BME280;37650;52.790;18.268;2023-03-25T06:07:15;99291.70;;;10.67;100.00
40171;BME280;37650;52.790;18.268;2023-03-25T06:10:39;99290.19;;;10.75;100.00
40171;BME280;37650;52.790;18.268;2023-03-25T06:14:01;99293.35;;;11.34;100.00
40171;BME280;37650;52.790;18.268;2023-03-25T06:17:22;99290.23;;;11.70;100.00
40171;BME280;37650;52.790;18.268;2023-03-25T06:20:44;99282.89;;;12.13;100.00
40171;BME280;37650;52.790;18.268;2023-03-25T06:24:07;99278.70;;;12.16;100.00
40171;BME280;37650;52.790;18.268;2023-03-25T06:27:28;99277.70;;;12.15;100.00
40171;BME280;37650;52.790;18.268;2023-03-25T06:30:49;99279.44;;;12.33;100.00
40171;BME280;37650;52.790;18.268;2023-03-25T06:34:11;99284.64;;;12.62;100.00
40171;BME280;37650;52.790;18.268;2023-03-25T06:37:33;99292.85;;;12.43;100.00
40171;BME280;37650;52.790;18.268;2023-03-25T06:40:56;99294.11;;;12.51;100.00
40171;BME280;37650;52.790;18.268;2023-03-25T06:44:18;99305.98;;;12.41;100.00
40171;BME280;37650;52.790;18.268;2023-03-25T06:47:40;99305.39;;;12.34;100.00
40171;BME280;37650;52.790;18.268;2023-03-25T06:51:01;99304.91;;;12.21;100.00
40171;BME280;37650;52.790;18.268;2023-03-25T06:54:22;99301.70;;;11.24;100.00
40171;BME280;37650;52.790;18.268;2023-03-25T06:57:43;99299.88;;;10.81;100.00
40171;BME280;37650;52.790;18.268;2023-03-25T07:01:05;99301.35;;;10.61;100.00
40171;BME280;37650;52.790;18.268;2023-03-25T07:04:27;99297.98;;;10.25;100.00
40171;BME280;37650;52.790;18.268;2023-03-25T07:07:49;99301.67;;;9.95;100.00
40171;BME280;37650;52.790;18.268;2023-03-25T07:11:11;99304.62;;;9.75;100.00
40171;BME280;37650;52.790;18.268;2023-03-25T07:14:33;99307.96;;;9.57;100.00
40171;BME280;37650;52.790;18.268;2023-03-25T07:17:55;99297.35;;;9.45;100.00
40171;BME280;37650;52.790;18.268;2023-03-25T07:21:17;99293.59;;;9.40;100.00
40171;BME280;37650;52.790;18.268;2023-03-25T07:24:39;99293.00;;;9.38;100.00
40171;BME280;37650;52.790;18.268;2023-03-25T07:28:00;99291.73;;;9.35;100.00
40171;BME280;37650;52.790;18.268;2023-03-25T07:31:29;99294.38;;;9.38;100.00
40171;BME280;37650;52.790;18.268;2023-03-25T07:34:50;99293.21;;;9.47;100.00
40171;BME280;37650;52.790;18.268;2023-03-25T07:38:12;99295.27;;;9.52;100.00
40171;BME280;37650;52.790;18.268;2023-03-25T07:41:33;99289.79;;;10.01;100.00
40171;BME280;37650;52.790;18.268;2023-03-25T07:45:04;99294.61;;;10.29;100.00
40171;BME280;37650;52.790;18.268;2023-03-25T07:48:27;99285.87;;;10.45;100.00
40171;BME280;37650;52.790;18.268;2023-03-25T07:51:48;99280.91;;;10.59;100.00
40171;BME280;37650;52.790;18.268;2023-03-25T07:55:09;99281.86;;;10.58;100.00
40171;BME280;37650;52.790;18.268;2023-03-25T07:58:31;99285.92;;;10.47;100.00
40171;BME280;37650;52.790;18.268;2023-03-25T08:01:52;99285.66;;;10.33;100.00
40171;BME280;37650;52.790;18.268;2023-03-25T08:05:14;99291.90;;;10.21;100.00
40171;BME280;37650;52.790;18.268;2023-03-25T08:08:41;99294.73;;;10.03;100.00
40171;BME280;37650;52.790;18.268;2023-03-25T08:12:02;99294.16;;;9.91;100.00
40171;BME280;37650;52.790;18.268;2023-03-25T08:15:24;99293.48;;;9.77;100.00
40171;BME280;37650;52.790;18.268;2023-03-25T08:18:45;99291.14;;;9.64;100.00
40171;BME280;37650;52.790;18.268;2023-03-25T08:22:07;99286.88;;;9.65;100.00
40171;BME280;37650;52.790;18.268;2023-03-25T08:25:29;99292.63;;;9.69;100.00
40171;BME280;37650;52.790;18.268;2023-03-25T08:28:52;99293.06;;;9.75;100.00
40171;BME280;37650;52.790;18.268;2023-03-25T08:32:14;99289.77;;;9.81;100.00
40171;BME280;37650;52.790;18.268;2023-03-25T08:35:37;99286.15;;;9.87;100.00
40171;BME280;37650;52.790;18.268;2023-03-25T08:38:58;99286.31;;;9.97;100.00
40171;BME280;37650;52.790;18.268;2023-03-25T08:42:19;99278.08;;;10.04;100.00
40171;BME280;37650;52.790;18.268;2023-03-25T08:45:41;99276.94;;;10.12;100.00
40171;BME280;37650;52.790;18.268;2023-03-25T08:49:04;99274.41;;;10.13;100.00
40171;BME280;37650;52.790;18.268;2023-03-25T08:52:26;99275.95;;;10.07;100.00
40171;BME280;37650;52.790;18.268;2023-03-25T08:55:52;99275.29;;;10.13;100.00
40171;BME280;37650;52.790;18.268;2023-03-25T08:59:14;99280.11;;;10.19;100.00
40171;BME280;37650;52.790;18.268;2023-03-25T09:02:35;99276.13;;;10.34;100.00
40171;BME280;37650;52.790;18.268;2023-03-25T09:05:56;99273.59;;;10.52;100.00
40171;BME280;37650;52.790;18.268;2023-03-25T09:09:18;99274.77;;;10.63;100.00
40171;BME280;37650;52.790;18.268;2023-03-25T09:12:40;99271.00;;;10.74;100.00
40171;BME280;37650;52.790;18.268;2023-03-25T09:16:02;99267.03;;;10.79;100.00
40171;BME280;37650;52.790;18.268;2023-03-25T09:19:23;99264.17;;;10.92;100.00
40171;BME280;37650;52.790;18.268;2023-03-25T09:22:45;99259.23;;;11.05;100.00
40171;BME280;37650;52.790;18.268;2023-03-25T09:26:06;99254.64;;;11.33;100.00
40171;BME280;37650;52.790;18.268;2023-03-25T09:29:28;99256.04;;;11.98;100.00
40171;BME280;37650;52.790;18.268;2023-03-25T09:32:49;99252.90;;;12.26;100.00
40171;BME280;37650;52.790;18.268;2023-03-25T09:36:11;99247.95;;;12.69;100.00
40171;BME280;37650;52.790;18.268;2023-03-25T09:39:33;99246.73;;;13.31;100.00
40171;BME280;37650;52.790;18.268;2023-03-25T09:43:02;99251.46;;;14.07;100.00
40171;BME280;37650;52.790;18.268;2023-03-25T09:46:27;99251.80;;;14.84;100.00
40171;BME280;37650;52.790;18.268;2023-03-25T09:49:55;99258.72;;;14.54;100.00
40171;BME280;37650;52.790;18.268;2023-03-25T09:57:08;99261.85;;;13.63;100.00
40171;BME280;37650;52.790;18.268;2023-03-25T10:00:34;99265.35;;;13.21;100.00
40171;BME280;37650;52.790;18.268;2023-03-25T10:08:07;99261.46;;;12.58;100.00
40171;BME280;37650;52.790;18.268;2023-03-25T10:11:53;99265.83;;;12.19;100.00
40171;BME280;37650;52.790;18.268;2023-03-25T10:27:04;99254.83;;;11.66;100.00
40171;BME280;37650;52.790;18.268;2023-03-25T10:30:31;99255.15;;;11.69;100.00
40171;BME280;37650;52.790;18.268;2023-03-25T10:33:58;99249.63;;;11.73;100.00
40171;BME280;37650;52.790;18.268;2023-03-25T10:37:27;99246.27;;;11.89;100.00
40171;BME280;37650;52.790;18.268;2023-03-25T10:44:34;99248.65;;;11.93;100.00
40171;BME280;37650;52.790;18.268;2023-03-25T10:48:03;99246.20;;;11.87;100.00
40171;BME280;37650;52.790;18.268;2023-03-25T10:51:30;99243.70;;;11.70;100.00
40171;BME280;37650;52.790;18.268;2023-03-25T10:54:55;99239.98;;;11.55;100.00
40171;BME280;37650;52.790;18.268;2023-03-25T10:58:18;99237.23;;;11.46;100.00
40171;BME280;37650;52.790;18.268;2023-03-25T11:01:40;99233.86;;;11.37;100.00
40171;BME280;37650;52.790;18.268;2023-03-25T11:05:03;99228.77;;;11.25;100.00
40171;BME280;37650;52.790;18.268;2023-03-25T11:08:26;99223.67;;;11.16;100.00
40171;BME280;37650;52.790;18.268;2023-03-25T11:11:48;99230.68;;;11.13;100.00
40171;BME280;37650;52.790;18.268;2023-03-25T11:15:15;99225.58;;;11.04;100.00
40171;BME280;37650;52.790;18.268;2023-03-25T11:18:38;99223.16;;;11.04;100.00
40171;BME280;37650;52.790;18.268;2023-03-25T11:22:23;99218.64;;;11.12;100.00
40171;BME280;37650;52.790;18.268;2023-03-25T11:25:47;99207.74;;;11.24;100.00
40171;BME280;37650;52.790;18.268;2023-03-25T11:29:12;99204.36;;;11.25;100.00
40171;BME280;37650;52.790;18.268;2023-03-25T11:32:36;99205.89;;;11.23;100.00
40171;BME280;37650;52.790;18.268;2023-03-25T11:36:30;99204.71;;;11.19;100.00
40171;BME280;37650;52.790;18.268;2023-03-25T11:39:53;99203.90;;;11.15;100.00
40171;BME280;37650;52.790;18.268;2023-03-25T11:43:22;99196.73;;;11.17;100.00
40171;BME280;37650;52.790;18.268;2023-03-25T11:46:45;99188.45;;;11.42;100.00
40171;BME280;37650;52.790;18.268;2023-03-25T11:50:18;99192.60;;;12.01;100.00
40171;BME280;37650;52.790;18.268;2023-03-25T11:53:47;99184.70;;;12.99;100.00
40171;BME280;37650;52.790;18.268;2023-03-25T11:57:14;99176.64;;;14.72;100.00
40171;BME280;37650;52.790;18.268;2023-03-25T12:00:38;99166.64;;;17.27;99.73
40171;BME280;37650;52.790;18.268;2023-03-25T12:04:13;99160.62;;;18.17;97.25
40171;BME280;37650;52.790;18.268;2023-03-25T12:07:52;99155.60;;;17.32;95.89
40171;BME280;37650;52.790;18.268;2023-03-25T12:19:12;99160.40;;;14.15;98.25
40171;BME280;37650;52.790;18.268;2023-03-25T12:23:17;99158.92;;;15.10;96.83
40171;BME280;37650;52.790;18.268;2023-03-25T12:38:46;99135.26;;;17.58;85.80
40171;BME280;37650;52.790;18.268;2023-03-25T13:01:08;99220.56;;;10.53;99.24
40171;BME280;37650;52.790;18.268;2023-03-25T13:09:00;99214.52;;;9.53;100.00
40171;BME280;37650;52.790;18.268;2023-03-25T13:16:06;99191.58;;;9.39;100.00
40171;BME280;37650;52.790;18.268;2023-03-25T13:19:31;99172.15;;;10.39;100.00
40171;BME280;37650;52.790;18.268;2023-03-25T13:23:01;99148.84;;;13.70;100.00
40171;BME280;37650;52.790;18.268;2023-03-25T13:26:25;99139.16;;;14.80;100.00
40171;BME280;37650;52.790;18.268;2023-03-25T13:29:52;99131.98;;;14.83;100.00
40171;BME280;37650;52.790;18.268;2023-03-25T13:33:18;99128.52;;;13.90;100.00
40171;BME280;37650;52.790;18.268;2023-03-25T13:44:32;99110.70;;;12.15;100.00
40171;BME280;37650;52.790;18.268;2023-03-25T13:48:21;99109.64;;;11.67;100.00
40171;BME280;37650;52.790;18.268;2023-03-25T13:51:46;99116.23;;;11.37;100.00
40171;BME280;37650;52.790;18.268;2023-03-25T13:55:18;99110.75;;;11.23;100.00
40171;BME280;37650;52.790;18.268;2023-03-25T13:58:52;99111.58;;;11.24;100.00
40171;BME280;37650;52.790;18.268;2023-03-25T14:09:27;99100.02;;;12.81;100.00
40171;BME280;37650;52.790;18.268;2023-03-25T14:13:01;99104.02;;;13.32;100.00
40171;BME280;37650;52.790;18.268;2023-03-25T14:16:27;99106.54;;;13.69;100.00
40171;BME280;37650;52.790;18.268;2023-03-25T14:19:53;99112.63;;;14.61;99.70
40171;BME280;37650;52.790;18.268;2023-03-25T14:23:19;99109.61;;;15.88;97.94
40171;BME280;37650;52.790;18.268;2023-03-25T14:26:54;99107.84;;;17.01;91.60
40171;BME280;37650;52.790;18.268;2023-03-25T14:30:23;99110.23;;;16.64;86.37
40171;BME280;37650;52.790;18.268;2023-03-25T14:37:27;99126.65;;;15.99;86.11
40171;BME280;37650;52.790;18.268;2023-03-25T14:40:50;99121.44;;;15.22;86.35
40171;BME280;37650;52.790;18.268;2023-03-25T14:44:17;99117.04;;;15.08;88.54
40171;BME280;37650;52.790;18.268;2023-03-25T14:47:51;99118.86;;;15.05;88.19
40171;BME280;37650;52.790;18.268;2023-03-25T14:54:51;99126.53;;;13.98;91.30
40171;BME280;37650;52.790;18.268;2023-03-25T14:58:26;99126.60;;;13.44;92.78
40171;BME280;37650;52.790;18.268;2023-03-25T15:01:49;99124.80;;;13.00;93.67
40171;BME280;37650;52.790;18.268;2023-03-25T15:05:18;99126.20;;;12.69;93.49
40171;BME280;37650;52.790;18.268;2023-03-25T15:08:53;99126.34;;;12.29;94.78
40171;BME280;37650;52.790;18.268;2023-03-25T15:12:18;99130.30;;;12.02;96.18
40171;BME280;37650;52.790;18.268;2023-03-25T15:19:17;99149.08;;;11.60;96.38
40171;BME280;37650;52.790;18.268;2023-03-25T15:22:41;99163.20;;;11.32;94.89
40171;BME280;37650;52.790;18.268;2023-03-25T15:26:03;99164.83;;;10.96;95.15
40171;BME280;37650;52.790;18.268;2023-03-25T15:45:16;99164.70;;;9.85;99.23
40171;BME280;37650;52.790;18.268;2023-03-25T15:56:15;99151.48;;;9.89;99.25
40171;BME280;37650;52.790;18.268;2023-03-25T15:59:43;99150.30;;;9.95;99.56
40171;BME280;37650;52.790;18.268;2023-03-25T16:03:12;99153.64;;;10.01;99.68
40171;BME280;37650;52.790;18.268;2023-03-25T16:06:40;99153.20;;;10.06;99.56
40171;BME280;37650;52.790;18.268;2023-03-25T16:10:27;99150.98;;;10.14;100.00
40171;BME280;37650;52.790;18.268;2023-03-25T16:14:21;99153.94;;;10.11;99.98
40171;BME280;37650;52.790;18.268;2023-03-25T16:17:44;99154.70;;;10.04;100.00
40171;BME280;37650;52.790;18.268;2023-03-25T16:21:07;99153.09;;;9.95;100.00
40171;BME280;37650;52.790;18.268;2023-03-25T16:24:30;99151.57;;;9.85;100.00
40171;BME280;37650;52.790;18.268;2023-03-25T16:27:56;99156.60;;;9.75;100.00
40171;BME280;37650;52.790;18.268;2023-03-25T16:31:32;99158.96;;;9.67;100.00
40171;BME280;37650;52.790;18.268;2023-03-25T16:34:55;99160.27;;;9.56;100.00
40171;BME280;37650;52.790;18.268;2023-03-25T16:38:19;99159.20;;;9.50;100.00
40171;BME280;37650;52.790;18.268;2023-03-25T16:41:44;99155.15;;;9.43;100.00
40171;BME280;37650;52.790;18.268;2023-03-25T16:45:13;99158.77;;;9.34;100.00
40171;BME280;37650;52.790;18.268;2023-03-25T16:48:42;99156.35;;;9.30;100.00
40171;BME280;37650;52.790;18.268;2023-03-25T16:52:12;99159.89;;;9.26;100.00
40171;BME280;37650;52.790;18.268;2023-03-25T16:55:49;99159.70;;;9.19;100.00
40171;BME280;37650;52.790;18.268;2023-03-25T16:59:26;99167.39;;;9.09;100.00
40171;BME280;37650;52.790;18.268;2023-03-25T17:02:49;99171.18;;;9.00;100.00
40171;BME280;37650;52.790;18.268;2023-03-25T17:09:40;99184.86;;;8.96;100.00
40171;BME280;37650;52.790;18.268;2023-03-25T17:13:08;99185.92;;;8.95;100.00
40171;BME280;37650;52.790;18.268;2023-03-25T17:16:32;99187.54;;;8.95;100.00
40171;BME280;37650;52.790;18.268;2023-03-25T17:19:55;99192.16;;;8.90;100.00
40171;BME280;37650;52.790;18.268;2023-03-25T17:23:44;99192.27;;;8.83;100.00
40171;BME280;37650;52.790;18.268;2023-03-25T17:27:22;99193.75;;;8.78;100.00
40171;BME280;37650;52.790;18.268;2023-03-25T17:30:45;99198.39;;;8.69;100.00
40171;BME280;37650;52.790;18.268;2023-03-25T17:34:21;99205.66;;;8.60;100.00
40171;BME280;37650;52.790;18.268;2023-03-25T17:37:47;99208.11;;;8.49;100.00
40171;BME280;37650;52.790;18.268;2023-03-25T17:41:10;99214.06;;;8.41;100.00
40171;BME280;37650;52.790;18.268;2023-03-25T17:44:38;99219.35;;;8.40;100.00
40171;BME280;37650;52.790;18.268;2023-03-25T17:48:02;99230.55;;;8.48;100.00
40171;BME280;37650;52.790;18.268;2023-03-25T17:51:28;99223.77;;;8.54;100.00
40171;BME280;37650;52.790;18.268;2023-03-25T17:54:52;99226.19;;;8.59;100.00
40171;BME280;37650;52.790;18.268;2023-03-25T17:58:16;99222.91;;;8.65;100.00
40171;BME280;37650;52.790;18.268;2023-03-25T18:01:37;99231.30;;;8.68;100.00
40171;BME280;37650;52.790;18.268;2023-03-25T18:04:59;99236.00;;;8.69;100.00
40171;BME280;37650;52.790;18.268;2023-03-25T18:08:23;99240.46;;;8.66;100.00
40171;BME280;37650;52.790;18.268;2023-03-25T18:11:50;99239.98;;;8.62;100.00
40171;BME280;37650;52.790;18.268;2023-03-25T18:15:15;99234.80;;;8.57;100.00
40171;BME280;37650;52.790;18.268;2023-03-25T18:18:37;99231.87;;;8.53;100.00
40171;BME280;37650;52.790;18.268;2023-03-25T18:22:01;99229.81;;;8.48;100.00
40171;BME280;37650;52.790;18.268;2023-03-25T18:25:25;99229.42;;;8.41;100.00
40171;BME280;37650;52.790;18.268;2023-03-25T18:28:50;99224.48;;;8.35;100.00
40171;BME280;37650;52.790;18.268;2023-03-25T18:32:12;99226.48;;;8.25;100.00
40171;BME280;37650;52.790;18.268;2023-03-25T18:35:35;99218.55;;;8.19;100.00
40171;BME280;37650;52.790;18.268;2023-03-25T18:38:56;99215.33;;;8.14;100.00
40171;BME280;37650;52.790;18.268;2023-03-25T18:42:19;99214.67;;;8.09;100.00
40171;BME280;37650;52.790;18.268;2023-03-25T18:45:42;99210.73;;;8.03;100.00
40171;BME280;37650;52.790;18.268;2023-03-25T18:49:14;99206.72;;;7.99;100.00
40171;BME280;37650;52.790;18.268;2023-03-25T18:52:39;99208.20;;;7.93;100.00
40171;BME280;37650;52.790;18.268;2023-03-25T18:56:02;99210.84;;;7.89;100.00
40171;BME280;37650;52.790;18.268;2023-03-25T18:59:27;99203.42;;;7.87;100.00
40171;BME280;37650;52.790;18.268;2023-03-25T19:02:51;99210.77;;;7.86;100.00
40171;BME280;37650;52.790;18.268;2023-03-25T19:06:14;99229.70;;;7.89;100.00
40171;BME280;37650;52.790;18.268;2023-03-25T19:09:35;99233.73;;;7.92;100.00
40171;BME280;37650;52.790;18.268;2023-03-25T19:12:59;99230.25;;;7.92;100.00
40171;BME280;37650;52.790;18.268;2023-03-25T19:16:25;99224.59;;;7.90;100.00
40171;BME280;37650;52.790;18.268;2023-03-25T19:19:50;99226.55;;;7.89;100.00
40171;BME280;37650;52.790;18.268;2023-03-25T19:23:15;99233.78;;;7.87;100.00
40171;BME280;37650;52.790;18.268;2023-03-25T19:26:39;99239.29;;;7.89;100.00
40171;BME280;37650;52.790;18.268;2023-03-25T19:30:02;99232.64;;;7.89;100.00
40171;BME280;37650;52.790;18.268;2023-03-25T19:33:25;99230.58;;;7.89;100.00
40171;BME280;37650;52.790;18.268;2023-03-25T19:36:48;99226.15;;;7.90;100.00
40171;BME280;37650;52.790;18.268;2023-03-25T19:40:10;99222.61;;;7.87;100.00
40171;BME280;37650;52.790;18.268;2023-03-25T19:43:34;99209.54;;;7.79;100.00
40171;BME280;37650;52.790;18.268;2023-03-25T19:46:57;99207.58;;;7.72;100.00
40171;BME280;37650;52.790;18.268;2023-03-25T19:50:31;99205.23;;;7.66;100.00
40171;BME280;37650;52.790;18.268;2023-03-25T19:53:54;99203.71;;;7.56;100.00
40171;BME280;37650;52.790;18.268;2023-03-25T19:57:18;99204.52;;;7.46;100.00
40171;BME280;37650;52.790;18.268;2023-03-25T20:00:41;99204.27;;;7.36;100.00
40171;BME280;37650;52.790;18.268;2023-03-25T20:04:03;99201.20;;;7.26;100.00
40171;BME280;37650;52.790;18.268;2023-03-25T20:07:26;99194.57;;;7.17;100.00
40171;BME280;37650;52.790;18.268;2023-03-25T20:10:50;99196.38;;;7.11;100.00
40171;BME280;37650;52.790;18.268;2023-03-25T20:14:14;99202.00;;;7.06;100.00
40171;BME280;37650;52.790;18.268;2023-03-25T20:17:38;99201.81;;;7.03;100.00
40171;BME280;37650;52.790;18.268;2023-03-25T20:21:06;99203.73;;;6.99;100.00
40171;BME280;37650;52.790;18.268;2023-03-25T20:24:30;99202.23;;;6.93;100.00